createdAt,value
2023-03-12T00:01:30.662Z,70.74
2023-03-12T00:03:57.184Z,70.45
2023-03-12T00:06:23.558Z,70.21
2023-03-12T00:08:49.878Z,70.75
2023-03-12T00:11:17.410Z,71.11
2023-03-12T00:13:43.944Z,70.63
2023-03-12T00:16:12.109Z,70.47
2023-03-12T00:18:38.917Z,70.64
2023-03-12T00:21:06.133Z,70.30
2023-03-12T00:23:32.503Z,70.21
2023-03-12T00:26:02.660Z,70.33
2023-03-12T00:28:29.021Z,70.43
2023-03-12T00:30:57.168Z,70.36
2023-03-12T00:33:24.516Z,70.56
2023-03-12T00:35:50.860Z,69.67
2023-03-12T00:38:17.178Z,70.49
2023-03-12T00:40:43.815Z,69.75
2023-03-12T00:43:10.282Z,70.16
2023-03-12T00:45:36.862Z,69.44
2023-03-12T00:48:03.272Z,69.99
2023-03-12T00:50:29.575Z,69.95
2023-03-12T00:52:55.866Z,69.87
2023-03-12T00:55:22.522Z,70.08
2023-03-12T00:57:48.809Z,69.70
2023-03-12T01:00:15.288Z,70.02
2023-03-12T01:02:41.647Z,69.36
2023-03-12T01:05:08.724Z,69.51
2023-03-12T01:07:35.373Z,69.42
2023-03-12T01:10:01.867Z,69.64
2023-03-12T01:12:28.188Z,69.55
2023-03-12T01:14:54.469Z,69.56
2023-03-12T01:17:20.831Z,70.03
2023-03-12T01:19:47.117Z,69.22
2023-03-12T01:22:14.305Z,69.54
2023-03-12T01:24:40.756Z,68.69
2023-03-12T01:27:07.228Z,69.23
2023-03-12T01:29:33.536Z,69.89
2023-03-12T01:31:59.848Z,69.82
2023-03-12T01:34:26.210Z,70.14
2023-03-12T01:36:52.521Z,69.60
2023-03-12T01:39:18.878Z,69.55
2023-03-12T01:41:45.176Z,69.73
2023-03-12T01:44:14.002Z,69.54
2023-03-12T01:46:43.146Z,70.08
2023-03-12T01:49:09.418Z,70.10
2023-03-12T01:51:54.393Z,70.07
2023-03-12T01:54:23.482Z,70.52
2023-03-12T01:56:50.312Z,70.17
2023-03-12T01:59:28.539Z,70.25
2023-03-12T02:01:55.102Z,70.18
2023-03-12T02:04:22.588Z,70.61
2023-03-12T02:06:53.139Z,71.09
2023-03-12T02:09:20.211Z,71.09
2023-03-12T02:11:46.518Z,70.93
2023-03-12T02:14:12.937Z,71.22
2023-03-12T02:16:39.267Z,70.94
2023-03-12T02:19:11.396Z,71.53
2023-03-12T02:21:38.535Z,72.23
2023-03-12T02:24:10.896Z,72.37
2023-03-12T02:26:38.152Z,72.88
2023-03-12T02:29:04.549Z,72.65
2023-03-12T02:31:34.934Z,72.64
2023-03-12T02:34:01.357Z,72.16
2023-03-12T02:36:27.828Z,72.55
2023-03-12T02:38:54.804Z,72.80
2023-03-12T02:41:22.720Z,73.31
2023-03-12T02:43:57.954Z,72.97
2023-03-12T02:46:24.952Z,73.02
2023-03-12T02:48:51.553Z,73.55
2023-03-12T02:51:17.960Z,73.24
2023-03-12T02:53:44.324Z,72.71
2023-03-12T02:56:10.731Z,73.55
2023-03-12T02:58:37.518Z,74.51
2023-03-12T03:01:04.045Z,74.47
2023-03-12T03:03:30.312Z,73.84
2023-03-12T03:05:56.857Z,74.15
2023-03-12T03:08:23.850Z,73.21
2023-03-12T03:10:50.940Z,73.62
2023-03-12T03:13:17.268Z,74.00
2023-03-12T03:15:43.545Z,73.90
2023-03-12T03:18:09.847Z,73.82
2023-03-12T03:20:36.187Z,73.66
2023-03-12T03:23:02.625Z,73.77
2023-03-12T03:25:28.907Z,73.49
2023-03-12T03:27:55.295Z,74.28
2023-03-12T03:30:21.632Z,74.99
2023-03-12T03:32:48.793Z,75.38
2023-03-12T03:35:15.154Z,75.67
2023-03-12T03:37:41.519Z,74.99
2023-03-12T03:40:11.665Z,74.73
2023-03-12T03:42:38.712Z,74.70
2023-03-12T03:45:05.852Z,74.72
2023-03-12T03:47:32.208Z,73.58
2023-03-12T03:49:58.508Z,74.15
2023-03-12T03:52:24.776Z,74.27
2023-03-12T03:54:51.116Z,74.04
2023-03-12T03:57:17.412Z,73.69
2023-03-12T03:59:43.672Z,73.97
2023-03-12T04:02:09.944Z,74.71
2023-03-12T04:04:36.280Z,74.99
2023-03-12T04:07:02.612Z,74.82
2023-03-12T04:09:30.429Z,75.37
2023-03-12T04:11:56.751Z,75.37
2023-03-12T04:14:23.080Z,75.04
2023-03-12T04:16:49.422Z,74.64
2023-03-12T04:19:15.774Z,74.15
2023-03-12T04:21:42.069Z,74.51
2023-03-12T04:24:12.899Z,74.23
2023-03-12T04:26:39.208Z,74.63
2023-03-12T04:29:05.518Z,75.30
2023-03-12T04:31:31.839Z,76.03
2023-03-12T04:33:58.193Z,75.75
2023-03-12T04:36:24.548Z,75.84
2023-03-12T04:38:50.822Z,75.26
2023-03-12T04:41:17.619Z,75.66
2023-03-12T04:43:44.298Z,75.36
2023-03-12T04:46:10.921Z,75.27
2023-03-12T04:48:37.257Z,75.64
2023-03-12T04:51:04.477Z,75.58
2023-03-12T04:53:30.909Z,75.23
2023-03-12T04:55:57.280Z,76.18
2023-03-12T04:58:23.633Z,75.98
2023-03-12T05:00:49.959Z,75.88
2023-03-12T05:03:16.809Z,75.77
2023-03-12T05:05:43.187Z,75.74
2023-03-12T05:08:09.569Z,75.34
2023-03-12T05:10:35.986Z,74.55
2023-03-12T05:13:02.280Z,75.41
2023-03-12T05:15:28.613Z,75.81
2023-03-12T05:17:55.072Z,75.36
2023-03-12T05:20:21.413Z,74.96
2023-03-12T05:22:47.752Z,74.81
2023-03-12T05:25:14.457Z,75.06
2023-03-12T05:27:40.774Z,75.02
2023-03-12T05:30:07.464Z,75.48
2023-03-12T05:32:33.877Z,74.80
2023-03-12T05:35:00.194Z,75.33
2023-03-12T05:37:26.523Z,74.84
2023-03-12T05:39:53.988Z,74.69
2023-03-12T05:42:20.283Z,75.08
2023-03-12T05:44:46.627Z,74.57
2023-03-12T05:47:12.914Z,74.81
2023-03-12T05:49:39.216Z,74.89
2023-03-12T05:52:05.857Z,74.58
2023-03-12T05:54:32.274Z,75.16
2023-03-12T05:56:59.071Z,75.28
2023-03-12T05:59:25.422Z,75.48
2023-03-12T06:01:51.773Z,75.50
2023-03-12T06:04:18.072Z,75.38
2023-03-12T06:06:44.360Z,75.72
2023-03-12T06:09:10.696Z,75.78
2023-03-12T06:11:36.995Z,76.11
2023-03-12T06:14:03.784Z,75.63
2023-03-12T06:16:30.248Z,75.88
2023-03-12T06:19:00.924Z,76.04
2023-03-12T06:21:29.146Z,75.69
2023-03-12T06:23:55.545Z,76.10
2023-03-12T06:26:22.329Z,75.92
2023-03-12T06:28:49.611Z,76.74
2023-03-12T06:31:16.222Z,76.91
2023-03-12T06:33:42.633Z,77.48
2023-03-12T06:36:09.815Z,77.17
2023-03-12T06:38:36.658Z,77.78
2023-03-12T06:41:04.927Z,77.04
2023-03-12T06:43:33.663Z,76.64
2023-03-12T06:46:00.912Z,77.30
2023-03-12T06:48:28.018Z,77.20
2023-03-12T06:50:54.534Z,75.99
2023-03-12T06:53:21.074Z,76.59
2023-03-12T06:55:49.824Z,76.00
2023-03-12T06:58:16.396Z,76.35
2023-03-12T07:00:42.914Z,76.11
2023-03-12T07:03:09.278Z,76.15
2023-03-12T07:05:35.600Z,75.28
2023-03-12T07:08:01.960Z,75.47
2023-03-12T07:10:29.402Z,75.39
2023-03-12T07:12:56.735Z,74.85
2023-03-12T07:15:23.177Z,75.69
2023-03-12T07:17:49.465Z,75.64
2023-03-12T07:20:15.875Z,75.07
2023-03-12T07:22:42.251Z,75.77
2023-03-12T07:25:08.960Z,75.31
2023-03-12T07:27:35.296Z,74.31
2023-03-12T07:30:01.887Z,74.99
2023-03-12T07:32:28.399Z,74.67
2023-03-12T07:34:54.740Z,74.84
2023-03-12T07:37:21.181Z,74.94
2023-03-12T07:39:51.206Z,74.73
2023-03-12T07:42:17.843Z,74.60
2023-03-12T07:44:44.198Z,74.05
2023-03-12T07:47:23.189Z,74.17
2023-03-12T07:49:50.255Z,75.01
2023-03-12T07:52:17.982Z,74.46
2023-03-12T07:54:44.386Z,73.63
2023-03-12T07:57:10.880Z,73.81
2023-03-12T07:59:37.384Z,74.03
2023-03-12T08:02:03.775Z,73.80
2023-03-12T08:04:30.306Z,73.98
2023-03-12T08:06:56.824Z,72.83
2023-03-12T08:09:23.242Z,73.39
2023-03-12T08:11:49.631Z,73.45
2023-03-12T08:14:16.056Z,72.14
2023-03-12T08:16:42.516Z,72.73
2023-03-12T08:19:08.876Z,71.51
2023-03-12T08:21:35.179Z,71.20
2023-03-12T08:24:01.565Z,71.82
2023-03-12T08:26:27.954Z,71.23
2023-03-12T08:28:54.262Z,70.82
2023-03-12T08:31:20.636Z,71.11
2023-03-12T08:33:46.983Z,70.87
2023-03-12T08:36:13.332Z,70.89
2023-03-12T08:38:39.654Z,71.18
2023-03-12T08:41:06.087Z,71.74
2023-03-12T08:43:32.433Z,71.19
2023-03-12T08:45:59.819Z,70.95
2023-03-12T08:48:26.529Z,70.02
2023-03-12T08:50:54.916Z,69.69
2023-03-12T08:53:21.264Z,69.37
2023-03-12T08:55:47.560Z,69.27
2023-03-12T08:58:13.886Z,68.61
2023-03-12T09:00:40.217Z,68.33
2023-03-12T09:03:06.711Z,68.51
2023-03-12T09:05:33.123Z,67.87
2023-03-12T09:07:59.411Z,67.98
2023-03-12T09:10:30.274Z,67.88
2023-03-12T09:12:57.131Z,67.36
2023-03-12T09:15:23.430Z,67.13
2023-03-12T09:17:50.607Z,67.04
2023-03-12T09:20:17.038Z,65.80
2023-03-12T09:22:43.412Z,65.92
2023-03-12T09:25:10.419Z,66.45
2023-03-12T09:27:37.650Z,65.89
2023-03-12T09:30:04.651Z,66.81
2023-03-12T09:32:31.099Z,66.71
2023-03-12T09:34:57.516Z,66.82
2023-03-12T09:37:24.476Z,66.11
2023-03-12T09:39:51.446Z,66.83
2023-03-12T09:42:25.791Z,66.70
2023-03-12T09:44:53.500Z,66.82
2023-03-12T09:47:25.982Z,66.12
2023-03-12T09:50:11.017Z,66.15
2023-03-12T09:52:44.579Z,65.70
2023-03-12T09:55:15.612Z,66.56
2023-03-12T09:57:42.873Z,65.50
2023-03-12T10:00:13.810Z,65.28
2023-03-12T10:02:40.142Z,67.20
2023-03-12T10:05:10.102Z,65.75
2023-03-12T10:07:42.869Z,64.86
2023-03-12T10:10:12.234Z,64.98
2023-03-12T10:12:41.580Z,65.10
2023-03-12T10:15:15.441Z,64.50
2023-03-12T10:17:44.871Z,64.20
2023-03-12T10:20:11.345Z,64.34
2023-03-12T10:22:53.016Z,64.63
2023-03-12T10:25:19.276Z,64.46
2023-03-12T10:27:45.706Z,64.64
2023-03-12T10:30:20.984Z,65.50
2023-03-12T10:32:49.486Z,63.91
2023-03-12T10:35:23.277Z,63.25
2023-03-12T10:37:58.881Z,63.20
2023-03-12T10:40:29.755Z,63.38
2023-03-12T10:42:56.320Z,63.83
2023-03-12T10:45:22.628Z,63.04
2023-03-12T10:47:51.996Z,63.56
2023-03-12T10:50:19.852Z,64.52
2023-03-12T10:52:47.797Z,64.13
2023-03-12T10:55:24.964Z,64.27
2023-03-12T10:57:51.825Z,64.24
2023-03-12T11:00:28.959Z,63.84
2023-03-12T11:03:15.532Z,63.61
2023-03-12T11:05:49.756Z,64.07
2023-03-12T11:08:21.017Z,63.58
2023-03-12T11:10:47.721Z,62.51
2023-03-12T11:13:22.953Z,63.03
2023-03-12T11:15:50.975Z,62.76
2023-03-12T11:18:20.510Z,62.59
2023-03-12T11:20:48.085Z,61.71
2023-03-12T11:23:22.099Z,62.24
2023-03-12T11:25:56.559Z,62.27
2023-03-12T11:28:24.689Z,61.88
2023-03-12T11:30:53.327Z,61.48
2023-03-12T11:33:19.703Z,60.82
2023-03-12T11:36:04.787Z,60.88
2023-03-12T11:38:34.851Z,59.96
2023-03-12T11:41:10.427Z,61.03
2023-03-12T11:43:57.008Z,61.00
2023-03-12T11:46:26.246Z,59.96
2023-03-12T11:48:55.588Z,60.25
2023-03-12T11:51:25.223Z,60.96
2023-03-12T11:54:09.610Z,60.37
2023-03-12T11:56:40.221Z,59.45
2023-03-12T11:59:25.206Z,59.53
2023-03-12T12:01:58.229Z,59.70
2023-03-12T12:04:43.255Z,59.95
2023-03-12T12:07:28.531Z,59.96
2023-03-12T12:09:54.839Z,59.70
2023-03-12T12:12:39.412Z,58.43
2023-03-12T12:15:11.830Z,58.92
2023-03-12T12:17:58.440Z,59.37
2023-03-12T12:20:43.958Z,58.88
2023-03-12T12:23:10.617Z,56.17
2023-03-12T12:25:57.629Z,56.22
2023-03-12T12:28:30.044Z,55.78
2023-03-12T12:30:59.460Z,56.63
2023-03-12T12:33:50.494Z,56.36
2023-03-12T12:36:17.518Z,55.56
2023-03-12T12:38:43.945Z,55.36
2023-03-12T12:41:22.952Z,55.47
2023-03-12T12:43:49.245Z,55.87
2023-03-12T12:46:17.983Z,55.37
2023-03-12T12:48:46.695Z,56.15
2023-03-12T12:51:14.712Z,56.54
2023-03-12T12:53:41.136Z,56.35
2023-03-12T12:56:15.593Z,56.43
2023-03-12T12:59:03.136Z,55.82
2023-03-12T13:01:30.613Z,56.96
2023-03-12T13:04:00.028Z,57.13
2023-03-12T13:06:28.946Z,56.58
2023-03-12T13:08:59.599Z,56.41
2023-03-12T13:11:30.251Z,55.62
2023-03-12T13:14:02.709Z,55.47
2023-03-12T13:16:33.982Z,54.71
2023-03-12T13:19:03.142Z,54.23
2023-03-12T13:21:34.885Z,56.24
2023-03-12T13:24:04.061Z,54.47
2023-03-12T13:26:30.345Z,52.79
2023-03-12T13:29:11.804Z,53.55
2023-03-12T13:31:39.728Z,51.26
2023-03-12T13:34:06.044Z,51.28
2023-03-12T13:36:36.316Z,48.87
2023-03-12T13:39:08.746Z,51.42
2023-03-12T13:41:35.038Z,50.22
2023-03-12T13:44:21.357Z,51.45
2023-03-12T13:46:47.975Z,51.04
2023-03-12T13:49:15.832Z,50.82
2023-03-12T13:51:47.155Z,51.25
2023-03-12T13:54:18.599Z,51.56
2023-03-12T13:56:56.088Z,52.58
2023-03-12T13:59:24.064Z,50.97
2023-03-12T14:01:53.785Z,51.77
2023-03-12T14:04:25.390Z,51.43
2023-03-12T14:07:10.110Z,52.37
2023-03-12T14:10:11.884Z,50.69
2023-03-12T14:12:50.040Z,50.72
2023-03-12T14:15:16.548Z,50.09
2023-03-12T14:17:43.830Z,51.61
2023-03-12T14:20:11.903Z,50.70
2023-03-12T14:22:39.152Z,52.39
2023-03-12T14:25:17.267Z,52.38
2023-03-12T14:27:45.342Z,53.46
2023-03-12T14:30:28.536Z,52.32
2023-03-12T14:32:56.921Z,52.20
2023-03-12T14:35:25.816Z,52.08
2023-03-12T14:37:52.120Z,51.23
2023-03-12T14:40:21.519Z,51.76
2023-03-12T14:42:48.064Z,52.14
2023-03-12T14:45:17.010Z,52.27
2023-03-12T14:47:44.702Z,53.15
2023-03-12T14:50:17.751Z,52.87
2023-03-12T14:52:44.089Z,53.35
2023-03-12T14:55:15.414Z,53.01
2023-03-12T14:57:41.796Z,52.59
2023-03-12T15:00:16.218Z,53.93
2023-03-12T15:02:43.485Z,54.68
2023-03-12T15:05:16.197Z,55.50
2023-03-12T15:07:42.784Z,55.74
2023-03-12T15:10:18.405Z,55.99
2023-03-12T15:12:45.819Z,57.34
2023-03-12T15:15:26.170Z,57.33
2023-03-12T15:17:52.536Z,57.46
2023-03-12T15:20:20.254Z,57.28
2023-03-12T15:22:46.934Z,58.26
2023-03-12T15:25:26.875Z,58.46
2023-03-12T15:28:05.418Z,58.40
2023-03-12T15:30:32.537Z,59.02
2023-03-12T15:33:08.163Z,59.24
2023-03-12T15:35:35.896Z,58.98
2023-03-12T15:38:02.800Z,60.27
2023-03-12T15:40:29.991Z,60.87
2023-03-12T15:42:59.155Z,61.93
2023-03-12T15:45:30.230Z,60.57
2023-03-12T15:47:56.627Z,61.94
2023-03-12T15:50:22.992Z,60.75
2023-03-12T15:52:59.502Z,62.28
2023-03-12T15:55:29.116Z,61.96
2023-03-12T15:57:56.316Z,61.72
2023-03-12T16:00:24.741Z,62.23
2023-03-12T16:02:51.030Z,61.75
2023-03-12T16:05:18.193Z,62.97
2023-03-12T16:07:44.562Z,63.04
2023-03-12T16:10:13.616Z,63.52
2023-03-12T16:12:40.239Z,63.79
2023-03-12T16:15:06.953Z,65.08
2023-03-12T16:17:33.241Z,65.85
2023-03-12T16:19:59.581Z,66.49
2023-03-12T16:22:25.886Z,66.90
2023-03-12T16:24:52.475Z,66.61
2023-03-12T16:27:31.736Z,66.85
2023-03-12T16:29:58.768Z,66.89
2023-03-12T16:32:25.162Z,66.73
2023-03-12T16:34:51.535Z,66.66
2023-03-12T16:37:17.924Z,67.05
2023-03-12T16:39:46.291Z,67.70
2023-03-12T16:42:17.269Z,68.31
2023-03-12T16:44:46.208Z,67.97
2023-03-12T16:47:12.832Z,68.40
2023-03-12T16:49:39.562Z,68.79
2023-03-12T16:52:16.198Z,69.25
2023-03-12T16:54:42.610Z,68.90
2023-03-12T16:57:13.991Z,69.91
2023-03-12T16:59:40.481Z,69.12
2023-03-12T17:02:15.466Z,70.70
2023-03-12T17:04:41.818Z,70.83
2023-03-12T17:07:08.149Z,70.88
2023-03-12T17:09:34.739Z,72.38
2023-03-12T17:12:01.424Z,72.07
2023-03-12T17:14:29.296Z,71.71
2023-03-12T17:16:55.590Z,73.26
2023-03-12T17:19:21.894Z,72.31
2023-03-12T17:21:48.913Z,73.39
2023-03-12T17:24:15.441Z,73.84
2023-03-12T17:26:42.358Z,73.93
2023-03-12T17:29:08.670Z,74.12
2023-03-12T17:31:37.386Z,74.12
2023-03-12T17:34:04.495Z,73.98
2023-03-12T17:36:30.884Z,75.10
2023-03-12T17:38:57.239Z,75.12
2023-03-12T17:41:27.028Z,74.81
2023-03-12T17:43:54.709Z,75.44
2023-03-12T17:46:21.148Z,75.07
2023-03-12T17:48:47.491Z,75.44
2023-03-12T17:51:13.812Z,74.64
2023-03-12T17:53:41.658Z,75.43
2023-03-12T17:56:08.111Z,75.75
2023-03-12T17:58:34.498Z,76.18
2023-03-12T18:01:00.806Z,76.41
2023-03-12T18:03:27.341Z,76.59
2023-03-12T18:05:53.697Z,76.64
2023-03-12T18:08:20.197Z,77.20
2023-03-12T18:10:47.604Z,76.48
2023-03-12T18:13:13.915Z,77.66
2023-03-12T18:15:41.090Z,77.20
2023-03-12T18:18:07.488Z,77.90
2023-03-12T18:20:39.124Z,77.46
2023-03-12T18:23:06.081Z,77.48
2023-03-12T18:25:32.392Z,78.26
2023-03-12T18:27:58.749Z,78.48
2023-03-12T18:30:25.238Z,78.33
2023-03-12T18:32:51.646Z,78.32
2023-03-12T18:35:18.258Z,80.53
2023-03-12T18:37:45.959Z,79.58
2023-03-12T18:40:12.576Z,78.48
2023-03-12T18:42:44.119Z,79.06
2023-03-12T18:45:13.352Z,79.20
2023-03-12T18:47:39.736Z,79.16
2023-03-12T18:50:07.376Z,79.54
2023-03-12T18:52:33.892Z,78.85
2023-03-12T18:55:00.330Z,79.97
2023-03-12T18:57:26.700Z,80.79
2023-03-12T18:59:53.042Z,80.81
2023-03-12T19:02:19.423Z,81.42
2023-03-12T19:04:45.824Z,80.32
2023-03-12T19:07:12.220Z,80.19
2023-03-12T19:09:38.950Z,80.66
2023-03-12T19:12:05.632Z,80.61
2023-03-12T19:14:32.118Z,81.42
2023-03-12T19:16:58.612Z,80.87
2023-03-12T19:19:25.236Z,81.00
2023-03-12T19:21:51.681Z,81.54
2023-03-12T19:24:18.065Z,81.32
2023-03-12T19:26:44.435Z,81.47
2023-03-12T19:29:10.882Z,81.84
2023-03-12T19:31:37.241Z,81.42
2023-03-12T19:34:03.589Z,82.11
2023-03-12T19:36:29.929Z,82.44
2023-03-12T19:38:56.281Z,82.38
2023-03-12T19:41:22.640Z,83.05
2023-03-12T19:43:49.055Z,82.62
2023-03-12T19:46:15.539Z,82.39
2023-03-12T19:48:41.937Z,82.46
2023-03-12T19:51:09.820Z,81.92
2023-03-12T19:53:36.677Z,83.12
2023-03-12T19:56:03.874Z,83.50
2023-03-12T19:58:30.341Z,83.08
2023-03-12T20:01:00.533Z,83.38
2023-03-12T20:03:27.792Z,82.92
2023-03-12T20:05:54.197Z,83.07
2023-03-12T20:08:21.845Z,83.63
2023-03-12T20:10:48.984Z,84.29
2023-03-12T20:13:17.520Z,83.20
2023-03-12T20:15:48.330Z,84.25
2023-03-12T20:18:15.027Z,82.19
2023-03-12T20:20:41.804Z,83.85
2023-03-12T20:23:08.649Z,82.83
2023-03-12T20:25:38.467Z,82.57
2023-03-12T20:28:04.789Z,81.91
2023-03-12T20:30:31.120Z,82.70
2023-03-12T20:32:57.664Z,83.19
2023-03-12T20:35:24.097Z,84.16
2023-03-12T20:37:50.429Z,83.34
2023-03-12T20:40:16.846Z,83.25
2023-03-12T20:42:43.263Z,83.20
2023-03-12T20:45:09.766Z,82.78
2023-03-12T20:47:37.619Z,83.21
2023-03-12T20:50:04.070Z,84.03
2023-03-12T20:52:30.415Z,83.19
2023-03-12T20:54:56.969Z,82.96
2023-03-12T20:57:23.274Z,83.28
2023-03-12T20:59:49.634Z,82.94
2023-03-12T21:02:16.016Z,83.21
2023-03-12T21:04:42.991Z,83.00
2023-03-12T21:07:09.408Z,83.21
2023-03-12T21:09:35.861Z,83.88
2023-03-12T21:12:02.181Z,83.70
2023-03-12T21:14:28.567Z,82.85
2023-03-12T21:16:54.988Z,83.39
2023-03-12T21:19:21.764Z,84.36
2023-03-12T21:21:48.062Z,84.47
2023-03-12T21:24:14.557Z,83.75
2023-03-12T21:26:40.904Z,83.80
2023-03-12T21:29:07.436Z,84.41
2023-03-12T21:31:33.935Z,83.24
2023-03-12T21:34:00.264Z,84.46
2023-03-12T21:36:26.740Z,84.53
2023-03-12T21:38:53.146Z,85.56
2023-03-12T21:41:19.981Z,84.84
2023-03-12T21:43:46.642Z,83.94
2023-03-12T21:46:17.210Z,84.67
2023-03-12T21:48:44.797Z,84.27
2023-03-12T21:51:12.171Z,84.12
2023-03-12T21:53:38.764Z,84.11
2023-03-12T21:56:05.977Z,84.74
2023-03-12T21:58:32.712Z,84.80
2023-03-12T22:01:04.808Z,86.10
2023-03-12T22:03:31.218Z,85.36
2023-03-12T22:05:57.524Z,86.24
2023-03-12T22:08:23.859Z,86.40
2023-03-12T22:10:50.281Z,86.41
2023-03-12T22:13:16.780Z,86.08
2023-03-12T22:15:46.000Z,86.46
2023-03-12T22:18:12.561Z,85.35
2023-03-12T22:20:38.848Z,85.58
2023-03-12T22:23:05.216Z,86.09
2023-03-12T22:25:35.987Z,87.32
2023-03-12T22:28:02.290Z,86.98
2023-03-12T22:30:28.707Z,87.08
2023-03-12T22:32:55.021Z,89.01
2023-03-12T22:35:25.670Z,88.50
2023-03-12T22:37:52.282Z,89.06
2023-03-12T22:40:18.882Z,89.24
2023-03-12T22:42:52.422Z,89.17
2023-03-12T22:45:19.263Z,88.73
2023-03-12T22:47:45.927Z,89.85
2023-03-12T22:50:12.950Z,89.22
2023-03-12T22:52:39.273Z,89.19
2023-03-12T22:55:06.079Z,90.16
2023-03-12T22:57:36.032Z,88.43
2023-03-12T23:00:02.531Z,88.30
2023-03-12T23:02:28.977Z,88.90
2023-03-12T23:04:55.512Z,89.16
2023-03-12T23:07:22.232Z,88.36
2023-03-12T23:09:48.611Z,87.84
2023-03-12T23:12:15.088Z,88.43
2023-03-12T23:14:41.388Z,87.66
2023-03-12T23:17:08.850Z,87.80
2023-03-12T23:19:35.984Z,88.22
2023-03-12T23:22:02.292Z,87.48
2023-03-12T23:24:31.458Z,87.26
2023-03-12T23:26:57.868Z,87.84
2023-03-12T23:29:24.214Z,87.71
2023-03-12T23:31:50.596Z,88.92
2023-03-12T23:34:16.966Z,87.65
2023-03-12T23:36:44.355Z,88.99
2023-03-12T23:39:10.629Z,87.58
2023-03-12T23:41:37.646Z,88.29
2023-03-12T23:44:04.287Z,87.58
2023-03-12T23:46:30.637Z,87.38
2023-03-12T23:48:57.267Z,87.50
2023-03-12T23:51:25.511Z,86.96
2023-03-12T23:53:54.964Z,86.47
2023-03-12T23:56:22.479Z,87.23
2023-03-12T23:58:49.227Z,86.75
